sensor_id;sensor_type;location;lat;lon;timestamp;temperature;humidity
9265;DHT22;4669;49.594;10.958;2023-11-19T00:00:37;5.80;99.90
9265;DHT22;4669;49.594;10.958;2023-11-19T00:05:38;5.80;99.90
9265;DHT22;4669;49.594;10.958;2023-11-19T00:10:42;5.90;99.90
9265;DHT22;4669;49.594;10.958;2023-11-19T00:15:45;5.90;99.90
9265;DHT22;4669;49.594;10.958;2023-11-19T00:20:48;5.90;99.90
9265;DHT22;4669;49.594;10.958;2023-11-19T00:25:50;5.90;99.90
9265;DHT22;4669;49.594;10.958;2023-11-19T00:30:53;5.90;99.90
9265;DHT22;4669;49.594;10.958;2023-11-19T00:35:55;5.90;99.90
9265;DHT22;4669;49.594;10.958;2023-11-19T00:40:57;5.90;99.90
9265;DHT22;4669;49.594;10.958;2023-11-19T00:46:00;5.90;99.90
9265;DHT22;4669;49.594;10.958;2023-11-19T00:51:04;6.00;99.90
9265;DHT22;4669;49.594;10.958;2023-11-19T00:56:06;5.90;99.90
9265;DHT22;4669;49.594;10.958;2023-11-19T01:01:11;5.90;99.90
9265;DHT22;4669;49.594;10.958;2023-11-19T01:06:13;6.00;99.90
9265;DHT22;4669;49.594;10.958;2023-11-19T01:11:20;6.00;99.90
9265;DHT22;4669;49.594;10.958;2023-11-19T01:16:23;6.00;99.90
9265;DHT22;4669;49.594;10.958;2023-11-19T01:21:25;6.00;99.90
9265;DHT22;4669;49.594;10.958;2023-11-19T01:26:27;6.00;99.90
9265;DHT22;4669;49.594;10.958;2023-11-19T01:31:30;6.00;99.90
9265;DHT22;4669;49.594;10.958;2023-11-19T01:36:34;6.10;99.90
9265;DHT22;4669;49.594;10.958;2023-11-19T01:41:37;6.10;99.90
9265;DHT22;4669;49.594;10.958;2023-11-19T01:46:42;6.00;99.90
9265;DHT22;4669;49.594;10.958;2023-11-19T01:51:47;6.10;99.90
9265;DHT22;4669;49.594;10.958;2023-11-19T01:56:49;6.10;99.90
9265;DHT22;4669;49.594;10.958;2023-11-19T02:01:53;6.10;99.90
9265;DHT22;4669;49.594;10.958;2023-11-19T02:06:56;6.10;99.90
9265;DHT22;4669;49.594;10.958;2023-11-19T02:11:59;6.10;99.90
9265;DHT22;4669;49.594;10.958;2023-11-19T02:17:03;6.10;99.90
9265;DHT22;4669;49.594;10.958;2023-11-19T02:22:05;6.10;99.90
9265;DHT22;4669;49.594;10.958;2023-11-19T02:27:13;6.10;99.90
9265;DHT22;4669;49.594;10.958;2023-11-19T02:32:19;6.10;99.90
9265;DHT22;4669;49.594;10.958;2023-11-19T02:37:21;6.10;99.90
9265;DHT22;4669;49.594;10.958;2023-11-19T02:42:23;6.20;99.90
9265;DHT22;4669;49.594;10.958;2023-11-19T02:47:26;6.20;99.90
9265;DHT22;4669;49.594;10.958;2023-11-19T02:52:31;6.20;99.90
9265;DHT22;4669;49.594;10.958;2023-11-19T02:57:38;6.20;99.90
9265;DHT22;4669;49.594;10.958;2023-11-19T03:02:42;6.20;99.90
9265;DHT22;4669;49.594;10.958;2023-11-19T03:07:46;6.20;99.90
9265;DHT22;4669;49.594;10.958;2023-11-19T03:12:48;6.30;99.90
9265;DHT22;4669;49.594;10.958;2023-11-19T03:17:51;6.20;99.90
9265;DHT22;4669;49.594;10.958;2023-11-19T03:22:53;6.20;99.90
9265;DHT22;4669;49.594;10.958;2023-11-19T03:27:56;6.30;99.90
9265;DHT22;4669;49.594;10.958;2023-11-19T03:33:00;6.40;99.90
9265;DHT22;4669;49.594;10.958;2023-11-19T03:38:03;6.40;99.90
9265;DHT22;4669;49.594;10.958;2023-11-19T03:43:05;6.30;99.90
9265;DHT22;4669;49.594;10.958;2023-11-19T03:48:08;6.40;99.90
9265;DHT22;4669;49.594;10.958;2023-11-19T03:53:11;6.40;99.90
9265;DHT22;4669;49.594;10.958;2023-11-19T03:58:13;6.40;99.90
9265;DHT22;4669;49.594;10.958;2023-11-19T04:03:16;6.40;99.90
9265;DHT22;4669;49.594;10.958;2023-11-19T04:08:19;6.40;99.90
9265;DHT22;4669;49.594;10.958;2023-11-19T04:13:21;6.40;99.90
9265;DHT22;4669;49.594;10.958;2023-11-19T04:18:26;6.40;99.90
9265;DHT22;4669;49.594;10.958;2023-11-19T04:23:28;6.40;99.90
9265;DHT22;4669;49.594;10.958;2023-11-19T04:28:30;6.50;99.90
9265;DHT22;4669;49.594;10.958;2023-11-19T04:33:33;6.40;99.90
9265;DHT22;4669;49.594;10.958;2023-11-19T04:38:35;6.50;99.90
9265;DHT22;4669;49.594;10.958;2023-11-19T04:43:39;6.50;99.90
9265;DHT22;4669;49.594;10.958;2023-11-19T04:48:42;6.50;99.90
9265;DHT22;4669;49.594;10.958;2023-11-19T04:53:44;6.50;99.90
9265;DHT22;4669;49.594;10.958;2023-11-19T04:58:46;6.60;99.90
9265;DHT22;4669;49.594;10.958;2023-11-19T05:03:49;6.60;99.90
9265;DHT22;4669;49.594;10.958;2023-11-19T05:08:51;6.60;99.90
9265;DHT22;4669;49.594;10.958;2023-11-19T05:13:54;6.60;99.90
9265;DHT22;4669;49.594;10.958;2023-11-19T05:18:58;6.60;99.90
9265;DHT22;4669;49.594;10.958;2023-11-19T05:23:59;6.60;99.90
9265;DHT22;4669;49.594;10.958;2023-11-19T05:29:01;6.70;99.90
9265;DHT22;4669;49.594;10.958;2023-11-19T05:34:06;6.70;99.90
9265;DHT22;4669;49.594;10.958;2023-11-19T05:39:08;6.70;99.90
9265;DHT22;4669;49.594;10.958;2023-11-19T05:44:12;6.70;99.90
9265;DHT22;4669;49.594;10.958;2023-11-19T05:49:15;6.80;99.90
9265;DHT22;4669;49.594;10.958;2023-11-19T05:54:17;6.80;99.90
9265;DHT22;4669;49.594;10.958;2023-11-19T05:59:19;6.80;99.90
9265;DHT22;4669;49.594;10.958;2023-11-19T06:04:24;6.80;99.90
9265;DHT22;4669;49.594;10.958;2023-11-19T06:09:26;6.80;99.90
9265;DHT22;4669;49.594;10.958;2023-11-19T06:14:28;6.90;99.90
9265;DHT22;4669;49.594;10.958;2023-11-19T06:19:31;6.90;99.90
9265;DHT22;4669;49.594;10.958;2023-11-19T06:24:33;7.00;99.90
9265;DHT22;4669;49.594;10.958;2023-11-19T06:29:35;7.00;99.90
9265;DHT22;4669;49.594;10.958;2023-11-19T06:34:39;7.00;99.90
9265;DHT22;4669;49.594;10.958;2023-11-19T06:39:41;7.10;99.90
9265;DHT22;4669;49.594;10.958;2023-11-19T06:44:43;7.10;99.90
9265;DHT22;4669;49.594;10.958;2023-11-19T06:49:46;7.20;99.90
9265;DHT22;4669;49.594;10.958;2023-11-19T06:54:48;7.30;99.90
9265;DHT22;4669;49.594;10.958;2023-11-19T06:59:50;7.40;99.90
9265;DHT22;4669;49.594;10.958;2023-11-19T07:04:53;7.40;99.90
9265;DHT22;4669;49.594;10.958;2023-11-19T07:09:55;7.50;99.90
9265;DHT22;4669;49.594;10.958;2023-11-19T07:14:57;7.50;99.90
9265;DHT22;4669;49.594;10.958;2023-11-19T07:20:00;7.60;99.90
9265;DHT22;4669;49.594;10.958;2023-11-19T07:25:02;7.80;99.90
9265;DHT22;4669;49.594;10.958;2023-11-19T07:30:05;8.30;99.90
9265;DHT22;4669;49.594;10.958;2023-11-19T07:35:09;8.70;99.90
9265;DHT22;4669;49.594;10.958;2023-11-19T07:40:12;9.00;99.90
9265;DHT22;4669;49.594;10.958;2023-11-19T07:45:14;9.10;99.90
9265;DHT22;4669;49.594;10.958;2023-11-19T07:50:18;9.30;99.90
9265;DHT22;4669;49.594;10.958;2023-11-19T07:55:20;9.40;99.90
9265;DHT22;4669;49.594;10.958;2023-11-19T08:00:22;9.60;99.90
9265;DHT22;4669;49.594;10.958;2023-11-19T08:05:25;9.60;99.90
9265;DHT22;4669;49.594;10.958;2023-11-19T08:10:27;9.80;99.90
9265;DHT22;4669;49.594;10.958;2023-11-19T08:15:30;9.90;99.90
9265;DHT22;4669;49.594;10.958;2023-11-19T08:20:33;9.90;99.90
9265;DHT22;4669;49.594;10.958;2023-11-19T08:25:35;9.90;99.90
9265;DHT22;4669;49.594;10.958;2023-11-19T08:30:37;10.00;99.90
9265;DHT22;4669;49.594;10.958;2023-11-19T08:35:40;9.90;99.90
9265;DHT22;4669;49.594;10.958;2023-11-19T08:40:42;9.90;99.90
9265;DHT22;4669;49.594;10.958;2023-11-19T08:45:44;10.10;99.90
9265;DHT22;4669;49.594;10.958;2023-11-19T08:50:47;10.10;99.90
9265;DHT22;4669;49.594;10.958;2023-11-19T08:55:49;10.20;99.90
9265;DHT22;4669;49.594;10.958;2023-11-19T09:00:51;10.40;99.90
9265;DHT22;4669;49.594;10.958;2023-11-19T09:05:54;10.60;99.90
9265;DHT22;4669;49.594;10.958;2023-11-19T09:10:57;10.80;99.90
9265;DHT22;4669;49.594;10.958;2023-11-19T09:15:58;11.00;99.90
9265;DHT22;4669;49.594;10.958;2023-11-19T09:21:05;11.10;99.90
9265;DHT22;4669;49.594;10.958;2023-11-19T09:26:08;11.10;99.90
9265;DHT22;4669;49.594;10.958;2023-11-19T09:31:14;11.40;99.90
9265;DHT22;4669;49.594;10.958;2023-11-19T09:36:18;11.60;99.90
9265;DHT22;4669;49.594;10.958;2023-11-19T09:41:20;11.60;99.90
9265;DHT22;4669;49.594;10.958;2023-11-19T09:46:22;11.60;99.90
9265;DHT22;4669;49.594;10.958;2023-11-19T09:51:26;11.70;99.90
9265;DHT22;4669;49.594;10.958;2023-11-19T09:56:29;11.70;99.90
9265;DHT22;4669;49.594;10.958;2023-11-19T10:01:31;11.80;99.90
9265;DHT22;4669;49.594;10.958;2023-11-19T10:06:34;11.90;99.90
9265;DHT22;4669;49.594;10.958;2023-11-19T10:11:40;11.90;99.90
9265;DHT22;4669;49.594;10.958;2023-11-19T10:16:48;11.70;99.90
9265;DHT22;4669;49.594;10.958;2023-11-19T10:22:04;11.70;99.90
9265;DHT22;4669;49.594;10.958;2023-11-19T10:27:34;11.80;99.90
9265;DHT22;4669;49.594;10.958;2023-11-19T10:32:44;11.90;99.90
9265;DHT22;4669;49.594;10.958;2023-11-19T10:37:49;12.00;99.90
9265;DHT22;4669;49.594;10.958;2023-11-19T10:43:04;12.00;99.90
9265;DHT22;4669;49.594;10.958;2023-11-19T10:48:09;11.90;99.90
9265;DHT22;4669;49.594;10.958;2023-11-19T10:53:17;12.10;99.90
9265;DHT22;4669;49.594;10.958;2023-11-19T10:58:20;12.10;99.90
9265;DHT22;4669;49.594;10.958;2023-11-19T11:03:24;12.20;99.90
9265;DHT22;4669;49.594;10.958;2023-11-19T11:08:30;12.10;99.90
9265;DHT22;4669;49.594;10.958;2023-11-19T11:13:32;12.10;99.90
9265;DHT22;4669;49.594;10.958;2023-11-19T11:18:34;12.30;99.90
9265;DHT22;4669;49.594;10.958;2023-11-19T11:23:55;12.40;99.90
9265;DHT22;4669;49.594;10.958;2023-11-19T11:29:01;12.40;99.90
9265;DHT22;4669;49.594;10.958;2023-11-19T11:34:34;12.50;99.90
9265;DHT22;4669;49.594;10.958;2023-11-19T11:39:39;12.70;99.90
9265;DHT22;4669;49.594;10.958;2023-11-19T11:45:01;12.70;99.90
9265;DHT22;4669;49.594;10.958;2023-11-19T11:50:07;12.70;99.90
9265;DHT22;4669;49.594;10.958;2023-11-19T11:55:11;12.70;99.90
9265;DHT22;4669;49.594;10.958;2023-11-19T12:00:21;12.80;99.90
9265;DHT22;4669;49.594;10.958;2023-11-19T12:05:23;12.70;99.90
9265;DHT22;4669;49.594;10.958;2023-11-19T12:10:28;12.70;99.90
9265;DHT22;4669;49.594;10.958;2023-11-19T12:15:32;12.70;99.90
9265;DHT22;4669;49.594;10.958;2023-11-19T12:20:34;12.70;99.90
9265;DHT22;4669;49.594;10.958;2023-11-19T12:25:39;12.50;99.90
9265;DHT22;4669;49.594;10.958;2023-11-19T12:30:41;12.40;99.90
9265;DHT22;4669;49.594;10.958;2023-11-19T12:35:44;12.30;99.90
9265;DHT22;4669;49.594;10.958;2023-11-19T12:40:49;12.00;99.90
9265;DHT22;4669;49.594;10.958;2023-11-19T12:46:11;11.90;99.90
9265;DHT22;4669;49.594;10.958;2023-11-19T12:51:18;11.80;99.90
9265;DHT22;4669;49.594;10.958;2023-11-19T12:56:22;11.70;99.90
9265;DHT22;4669;49.594;10.958;2023-11-19T13:01:24;11.70;99.90
9265;DHT22;4669;49.594;10.958;2023-11-19T13:06:26;11.80;99.90
9265;DHT22;4669;49.594;10.958;2023-11-19T13:11:33;11.80;99.90
9265;DHT22;4669;49.594;10.958;2023-11-19T13:16:37;11.90;99.90
9265;DHT22;4669;49.594;10.958;2023-11-19T13:21:39;12.10;99.90
9265;DHT22;4669;49.594;10.958;2023-11-19T13:26:42;12.20;99.90
9265;DHT22;4669;49.594;10.958;2023-11-19T13:31:44;12.30;99.90
9265;DHT22;4669;49.594;10.958;2023-11-19T13:36:46;12.40;99.90
9265;DHT22;4669;49.594;10.958;2023-11-19T13:41:49;12.40;99.90
9265;DHT22;4669;49.594;10.958;2023-11-19T13:46:51;12.40;99.90
9265;DHT22;4669;49.594;10.958;2023-11-19T13:51:53;12.30;99.90
9265;DHT22;4669;49.594;10.958;2023-11-19T13:56:56;11.90;99.90
9265;DHT22;4669;49.594;10.958;2023-11-19T14:01:58;11.60;99.90
9265;DHT22;4669;49.594;10.958;2023-11-19T14:07:00;11.50;99.90
9265;DHT22;4669;49.594;10.958;2023-11-19T14:12:04;11.50;99.90
9265;DHT22;4669;49.594;10.958;2023-11-19T14:17:06;11.40;99.90
9265;DHT22;4669;49.594;10.958;2023-11-19T14:22:08;11.40;99.90
9265;DHT22;4669;49.594;10.958;2023-11-19T14:27:12;11.50;99.90
9265;DHT22;4669;49.594;10.958;2023-11-19T14:32:13;11.50;99.90
9265;DHT22;4669;49.594;10.958;2023-11-19T14:37:15;11.50;99.90
9265;DHT22;4669;49.594;10.958;2023-11-19T14:42:19;11.50;99.90
9265;DHT22;4669;49.594;10.958;2023-11-19T14:47:21;11.50;99.90
9265;DHT22;4669;49.594;10.958;2023-11-19T14:52:23;11.50;99.90
9265;DHT22;4669;49.594;10.958;2023-11-19T14:57:26;11.40;99.90
9265;DHT22;4669;49.594;10.958;2023-11-19T15:02:28;11.40;99.90
9265;DHT22;4669;49.594;10.958;2023-11-19T15:07:30;11.40;99.90
9265;DHT22;4669;49.594;10.958;2023-11-19T15:12:33;11.50;99.90
9265;DHT22;4669;49.594;10.958;2023-11-19T15:17:36;11.50;99.90
9265;DHT22;4669;49.594;10.958;2023-11-19T15:22:38;11.40;99.90
9265;DHT22;4669;49.594;10.958;2023-11-19T15:27:41;11.40;99.90
9265;DHT22;4669;49.594;10.958;2023-11-19T15:32:43;11.40;99.90
9265;DHT22;4669;49.594;10.958;2023-11-19T15:37:45;11.30;99.90
9265;DHT22;4669;49.594;10.958;2023-11-19T15:42:49;11.30;99.90
9265;DHT22;4669;49.594;10.958;2023-11-19T15:47:50;11.40;99.90
9265;DHT22;4669;49.594;10.958;2023-11-19T15:52:52;11.40;99.90
9265;DHT22;4669;49.594;10.958;2023-11-19T15:57:55;11.30;99.90
9265;DHT22;4669;49.594;10.958;2023-11-19T16:02:57;11.20;99.90
9265;DHT22;4669;49.594;10.958;2023-11-19T16:07:59;11.20;99.90
9265;DHT22;4669;49.594;10.958;2023-11-19T16:13:02;11.10;99.90
9265;DHT22;4669;49.594;10.958;2023-11-19T16:18:04;10.90;99.90
9265;DHT22;4669;49.594;10.958;2023-11-19T16:23:08;10.90;99.90
9265;DHT22;4669;49.594;10.958;2023-11-19T16:28:11;10.90;99.90
9265;DHT22;4669;49.594;10.958;2023-11-19T16:33:14;10.80;99.90
9265;DHT22;4669;49.594;10.958;2023-11-19T16:38:16;10.90;99.90
9265;DHT22;4669;49.594;10.958;2023-11-19T16:43:20;10.90;99.90
9265;DHT22;4669;49.594;10.958;2023-11-19T16:48:23;10.90;99.90
9265;DHT22;4669;49.594;10.958;2023-11-19T16:53:25;10.80;99.90
9265;DHT22;4669;49.594;10.958;2023-11-19T16:58:29;10.80;99.90
9265;DHT22;4669;49.594;10.958;2023-11-19T17:03:31;10.70;99.90
9265;DHT22;4669;49.594;10.958;2023-11-19T17:08:33;10.80;99.90
9265;DHT22;4669;49.594;10.958;2023-11-19T17:13:36;10.80;99.90
9265;DHT22;4669;49.594;10.958;2023-11-19T17:18:38;10.70;99.90
9265;DHT22;4669;49.594;10.958;2023-11-19T17:23:40;10.70;99.90
9265;DHT22;4669;49.594;10.958;2023-11-19T17:28:44;10.70;99.90
9265;DHT22;4669;49.594;10.958;2023-11-19T17:33:46;10.70;99.90
9265;DHT22;4669;49.594;10.958;2023-11-19T17:38:48;10.60;99.90
9265;DHT22;4669;49.594;10.958;2023-11-19T17:43:51;10.70;99.90
9265;DHT22;4669;49.594;10.958;2023-11-19T17:48:54;10.60;99.90
9265;DHT22;4669;49.594;10.958;2023-11-19T17:53:56;10.70;99.90
9265;DHT22;4669;49.594;10.958;2023-11-19T17:58:59;10.70;99.90
9265;DHT22;4669;49.594;10.958;2023-11-19T18:04:01;10.60;99.90
9265;DHT22;4669;49.594;10.958;2023-11-19T18:09:03;10.50;99.90
9265;DHT22;4669;49.594;10.958;2023-11-19T18:14:08;10.50;99.90
9265;DHT22;4669;49.594;10.958;2023-11-19T18:19:12;10.40;99.90
9265;DHT22;4669;49.594;10.958;2023-11-19T18:24:14;10.40;99.90
9265;DHT22;4669;49.594;10.958;2023-11-19T18:29:18;10.40;99.90
9265;DHT22;4669;49.594;10.958;2023-11-19T18:34:20;10.30;99.90
9265;DHT22;4669;49.594;10.958;2023-11-19T18:39:21;10.30;99.90
9265;DHT22;4669;49.594;10.958;2023-11-19T18:44:25;10.20;99.90
9265;DHT22;4669;49.594;10.958;2023-11-19T18:49:27;10.40;99.90
9265;DHT22;4669;49.594;10.958;2023-11-19T18:54:29;10.80;99.90
9265;DHT22;4669;49.594;10.958;2023-11-19T18:59:32;10.90;99.90
9265;DHT22;4669;49.594;10.958;2023-11-19T19:04:34;11.00;99.90
9265;DHT22;4669;49.594;10.958;2023-11-19T19:09:37;10.90;99.90
9265;DHT22;4669;49.594;10.958;2023-11-19T19:14:40;10.90;99.90
9265;DHT22;4669;49.594;10.958;2023-11-19T19:19:44;10.80;99.90
9265;DHT22;4669;49.594;10.958;2023-11-19T19:24:46;10.70;99.90
9265;DHT22;4669;49.594;10.958;2023-11-19T19:29:49;10.70;99.90
9265;DHT22;4669;49.594;10.958;2023-11-19T19:34:51;10.60;99.90
9265;DHT22;4669;49.594;10.958;2023-11-19T19:39:54;10.50;99.90
9265;DHT22;4669;49.594;10.958;2023-11-19T19:44:57;10.50;99.90
9265;DHT22;4669;49.594;10.958;2023-11-19T19:50:00;10.40;99.90
9265;DHT22;4669;49.594;10.958;2023-11-19T19:55:02;10.30;99.90
9265;DHT22;4669;49.594;10.958;2023-11-19T20:00:07;10.20;99.90
9265;DHT22;4669;49.594;10.958;2023-11-19T20:05:13;10.10;99.90
9265;DHT22;4669;49.594;10.958;2023-11-19T20:10:15;10.00;99.90
9265;DHT22;4669;49.594;10.958;2023-11-19T20:15:19;9.90;99.90
9265;DHT22;4669;49.594;10.958;2023-11-19T20:20:23;10.00;99.90
9265;DHT22;4669;49.594;10.958;2023-11-19T20:25:26;10.30;99.90
9265;DHT22;4669;49.594;10.958;2023-11-19T20:30:29;10.30;99.90
9265;DHT22;4669;49.594;10.958;2023-11-19T20:35:31;10.40;99.90
9265;DHT22;4669;49.594;10.958;2023-11-19T20:40:33;10.40;99.90
9265;DHT22;4669;49.594;10.958;2023-11-19T20:45:37;10.30;99.90
9265;DHT22;4669;49.594;10.958;2023-11-19T20:50:39;10.20;99.90
9265;DHT22;4669;49.594;10.958;2023-11-19T20:55:41;10.10;99.90
9265;DHT22;4669;49.594;10.958;2023-11-19T21:00:46;10.00;99.90
9265;DHT22;4669;49.594;10.958;2023-11-19T21:05:48;9.90;99.90
9265;DHT22;4669;49.594;10.958;2023-11-19T21:10:54;9.90;99.90
9265;DHT22;4669;49.594;10.958;2023-11-19T21:16:01;9.80;99.90
9265;DHT22;4669;49.594;10.958;2023-11-19T21:21:03;9.80;99.90
9265;DHT22;4669;49.594;10.958;2023-11-19T21:26:05;9.80;99.90
9265;DHT22;4669;49.594;10.958;2023-11-19T21:31:09;9.80;99.90
9265;DHT22;4669;49.594;10.958;2023-11-19T21:36:11;9.80;99.90
9265;DHT22;4669;49.594;10.958;2023-11-19T21:41:13;9.70;99.90
9265;DHT22;4669;49.594;10.958;2023-11-19T21:46:16;9.70;99.90
9265;DHT22;4669;49.594;10.958;2023-11-19T21:51:21;9.70;99.90
9265;DHT22;4669;49.594;10.958;2023-11-19T21:56:24;9.80;99.90
9265;DHT22;4669;49.594;10.958;2023-11-19T22:01:27;9.80;99.90
9265;DHT22;4669;49.594;10.958;2023-11-19T22:06:30;9.90;99.90
9265;DHT22;4669;49.594;10.958;2023-11-19T22:11:31;9.90;99.90
9265;DHT22;4669;49.594;10.958;2023-11-19T22:16:36;10.10;99.90
9265;DHT22;4669;49.594;10.958;2023-11-19T22:21:38;10.10;99.90
9265;DHT22;4669;49.594;10.958;2023-11-19T22:26:40;10.10;99.90
9265;DHT22;4669;49.594;10.958;2023-11-19T22:31:43;10.20;99.90
9265;DHT22;4669;49.594;10.958;2023-11-19T22:36:46;10.30;99.90
9265;DHT22;4669;49.594;10.958;2023-11-19T22:41:48;10.30;99.90
9265;DHT22;4669;49.594;10.958;2023-11-19T22:46:51;10.20;99.90
9265;DHT22;4669;49.594;10.958;2023-11-19T22:51:53;10.30;99.90
9265;DHT22;4669;49.594;10.958;2023-11-19T22:56:55;10.30;99.90
